sensor_id;sensor_type;location;lat;lon;timestamp;temperature;humidity
67165;SHT31;54093;50.014;19.984;2022-08-07T00:09:14;16.83;80.89
67165;SHT31;54093;50.014;19.984;2022-08-07T00:18:35;16.93;81.22
67165;SHT31;54093;50.014;19.984;2022-08-07T00:27:56;16.90;81.32
67165;SHT31;54093;50.014;19.984;2022-08-07T00:37:17;16.94;81.55
67165;SHT31;54093;50.014;19.984;2022-08-07T00:46:37;17.02;81.65
67165;SHT31;54093;50.014;19.984;2022-08-07T00:55:58;16.97;81.75
67165;SHT31;54093;50.014;19.984;2022-08-07T01:05:19;16.90;81.96
67165;SHT31;54093;50.014;19.984;2022-08-07T01:14:40;17.03;81.82
67165;SHT31;54093;50.014;19.984;2022-08-07T01:24:02;16.97;82.08
67165;SHT31;54093;50.014;19.984;2022-08-07T01:33:23;17.02;82.35
67165;SHT31;54093;50.014;19.984;2022-08-07T01:42:44;17.03;82.49
67165;SHT31;54093;50.014;19.984;2022-08-07T01:52:08;17.07;82.29
67165;SHT31;54093;50.014;19.984;2022-08-07T02:01:34;16.96;82.99
67165;SHT31;54093;50.014;19.984;2022-08-07T02:10:56;16.99;82.87
67165;SHT31;54093;50.014;19.984;2022-08-07T02:20:20;17.06;83.05
67165;SHT31;54093;50.014;19.984;2022-08-07T02:29:42;17.03;82.91
67165;SHT31;54093;50.014;19.984;2022-08-07T02:39:04;17.04;83.01
67165;SHT31;54093;50.014;19.984;2022-08-07T02:48:26;17.02;82.86
67165;SHT31;54093;50.014;19.984;2022-08-07T02:57:49;16.99;82.77
67165;SHT31;54093;50.014;19.984;2022-08-07T03:07:10;17.04;82.72
67165;SHT31;54093;50.014;19.984;2022-08-07T03:16:32;17.06;82.43
67165;SHT31;54093;50.014;19.984;2022-08-07T03:25:55;17.00;82.82
67165;SHT31;54093;50.014;19.984;2022-08-07T03:35:21;16.94;83.28
67165;SHT31;54093;50.014;19.984;2022-08-07T03:44:42;16.90;83.13
67165;SHT31;54093;50.014;19.984;2022-08-07T03:54:03;16.71;83.72
67165;SHT31;54093;50.014;19.984;2022-08-07T04:03:24;16.69;83.95
67165;SHT31;54093;50.014;19.984;2022-08-07T04:12:46;16.87;83.37
67165;SHT31;54093;50.014;19.984;2022-08-07T04:22:09;16.99;82.77
67165;SHT31;54093;50.014;19.984;2022-08-07T04:31:30;17.13;81.91
67165;SHT31;54093;50.014;19.984;2022-08-07T04:40:52;17.17;81.61
67165;SHT31;54093;50.014;19.984;2022-08-07T05:18:59;17.28;81.03
67165;SHT31;54093;50.014;19.984;2022-08-07T05:28:22;17.34;80.99
67165;SHT31;54093;50.014;19.984;2022-08-07T05:37:43;17.26;80.21
67165;SHT31;54093;50.014;19.984;2022-08-07T05:47:05;17.28;80.55
67165;SHT31;54093;50.014;19.984;2022-08-07T05:56:27;17.21;80.83
67165;SHT31;54093;50.014;19.984;2022-08-07T06:05:49;17.19;80.25
67165;SHT31;54093;50.014;19.984;2022-08-07T06:15:13;17.14;80.38
67165;SHT31;54093;50.014;19.984;2022-08-07T06:24:34;17.17;80.70
67165;SHT31;54093;50.014;19.984;2022-08-07T06:33:56;17.21;80.55
67165;SHT31;54093;50.014;19.984;2022-08-07T06:43:20;17.28;80.16
67165;SHT31;54093;50.014;19.984;2022-08-07T06:52:46;17.33;79.64
67165;SHT31;54093;50.014;19.984;2022-08-07T07:02:16;17.37;79.53
67165;SHT31;54093;50.014;19.984;2022-08-07T07:11:38;17.48;79.30
67165;SHT31;54093;50.014;19.984;2022-08-07T07:21:07;17.52;79.34
67165;SHT31;54093;50.014;19.984;2022-08-07T07:30:34;17.58;79.00
67165;SHT31;54093;50.014;19.984;2022-08-07T07:39:58;17.69;77.88
67165;SHT31;54093;50.014;19.984;2022-08-07T07:49:22;17.83;78.05
67165;SHT31;54093;50.014;19.984;2022-08-07T07:58:44;17.95;76.73
67165;SHT31;54093;50.014;19.984;2022-08-07T08:08:07;18.09;75.12
67165;SHT31;54093;50.014;19.984;2022-08-07T08:17:30;18.27;75.58
67165;SHT31;54093;50.014;19.984;2022-08-07T08:26:55;18.48;72.66
67165;SHT31;54093;50.014;19.984;2022-08-07T08:36:28;18.72;71.55
67165;SHT31;54093;50.014;19.984;2022-08-07T08:45:51;19.02;71.97
67165;SHT31;54093;50.014;19.984;2022-08-07T09:14:35;20.77;64.12
67165;SHT31;54093;50.014;19.984;2022-08-07T09:53:36;21.11;59.46
67165;SHT31;54093;50.014;19.984;2022-08-07T10:41:56;24.30;53.94
67165;SHT31;54093;50.014;19.984;2022-08-07T11:20:47;23.29;51.06
67165;SHT31;54093;50.014;19.984;2022-08-07T11:30:14;22.69;52.60
67165;SHT31;54093;50.014;19.984;2022-08-07T11:39:47;22.37;55.09
67165;SHT31;54093;50.014;19.984;2022-08-07T11:58:52;21.69;54.75
67165;SHT31;54093;50.014;19.984;2022-08-07T12:08:37;21.58;54.06
67165;SHT31;54093;50.014;19.984;2022-08-07T12:27:28;21.82;55.47
67165;SHT31;54093;50.014;19.984;2022-08-07T12:36:51;21.81;53.62
67165;SHT31;54093;50.014;19.984;2022-08-07T12:46:34;22.05;52.91
67165;SHT31;54093;50.014;19.984;2022-08-07T12:56:09;22.32;53.85
67165;SHT31;54093;50.014;19.984;2022-08-07T13:05:44;22.61;52.66
67165;SHT31;54093;50.014;19.984;2022-08-07T13:25:10;22.90;50.17
67165;SHT31;54093;50.014;19.984;2022-08-07T13:44:09;23.05;51.19
67165;SHT31;54093;50.014;19.984;2022-08-07T13:53:32;23.05;49.90
67165;SHT31;54093;50.014;19.984;2022-08-07T14:02:56;23.18;51.50
67165;SHT31;54093;50.014;19.984;2022-08-07T14:12:50;23.06;49.44
67165;SHT31;54093;50.014;19.984;2022-08-07T14:22:17;22.78;50.40
67165;SHT31;54093;50.014;19.984;2022-08-07T14:31:41;23.05;50.49
67165;SHT31;54093;50.014;19.984;2022-08-07T14:41:06;23.26;49.71
67165;SHT31;54093;50.014;19.984;2022-08-07T14:50:28;22.85;50.63
67165;SHT31;54093;50.014;19.984;2022-08-07T14:59:50;22.82;50.40
67165;SHT31;54093;50.014;19.984;2022-08-07T15:09:13;22.96;53.20
67165;SHT31;54093;50.014;19.984;2022-08-07T15:18:37;23.15;53.36
67165;SHT31;54093;50.014;19.984;2022-08-07T15:28:00;23.18;52.36
67165;SHT31;54093;50.014;19.984;2022-08-07T15:37:29;23.32;49.41
67165;SHT31;54093;50.014;19.984;2022-08-07T15:47:00;23.43;48.80
67165;SHT31;54093;50.014;19.984;2022-08-07T15:56:33;23.33;50.91
67165;SHT31;54093;50.014;19.984;2022-08-07T16:05:54;23.08;47.62
67165;SHT31;54093;50.014;19.984;2022-08-07T16:25:24;22.44;51.04
67165;SHT31;54093;50.014;19.984;2022-08-07T16:34:53;22.24;51.57
67165;SHT31;54093;50.014;19.984;2022-08-07T17:04:10;21.55;52.69
67165;SHT31;54093;50.014;19.984;2022-08-07T17:13:38;21.32;52.40
67165;SHT31;54093;50.014;19.984;2022-08-07T18:01:15;19.36;62.09
67165;SHT31;54093;50.014;19.984;2022-08-07T18:20:11;18.68;63.64
67165;SHT31;54093;50.014;19.984;2022-08-07T18:30:00;18.39;64.00
67165;SHT31;54093;50.014;19.984;2022-08-07T18:49:27;17.88;66.25
67165;SHT31;54093;50.014;19.984;2022-08-07T19:18:21;17.50;68.39
67165;SHT31;54093;50.014;19.984;2022-08-07T19:27:43;17.31;68.11
67165;SHT31;54093;50.014;19.984;2022-08-07T19:37:06;17.12;68.90
67165;SHT31;54093;50.014;19.984;2022-08-07T19:46:32;17.02;68.89
67165;SHT31;54093;50.014;19.984;2022-08-07T19:55:55;16.86;69.19
67165;SHT31;54093;50.014;19.984;2022-08-07T20:05:29;16.63;69.30
67165;SHT31;54093;50.014;19.984;2022-08-07T20:14:52;16.52;70.53
67165;SHT31;54093;50.014;19.984;2022-08-07T20:24:50;16.28;70.59
67165;SHT31;54093;50.014;19.984;2022-08-07T20:34:06;16.10;71.43
67165;SHT31;54093;50.014;19.984;2022-08-07T20:43:30;15.98;71.50
67165;SHT31;54093;50.014;19.984;2022-08-07T20:52:52;15.89;72.26
67165;SHT31;54093;50.014;19.984;2022-08-07T21:02:15;15.93;72.96
67165;SHT31;54093;50.014;19.984;2022-08-07T21:12:00;15.97;73.60
67165;SHT31;54093;50.014;19.984;2022-08-07T21:21:22;16.10;73.78
67165;SHT31;54093;50.014;19.984;2022-08-07T21:31:01;16.10;74.50
67165;SHT31;54093;50.014;19.984;2022-08-07T21:40:47;16.11;74.80
67165;SHT31;54093;50.014;19.984;2022-08-07T21:50:24;16.11;74.79
67165;SHT31;54093;50.014;19.984;2022-08-07T22:00:04;16.01;74.78
67165;SHT31;54093;50.014;19.984;2022-08-07T22:09:29;15.83;74.62
67165;SHT31;54093;50.014;19.984;2022-08-07T22:18:59;15.63;75.07
67165;SHT31;54093;50.014;19.984;2022-08-07T22:57:04;15.02;75.24
67165;SHT31;54093;50.014;19.984;2022-08-07T23:45:46;14.29;76.38
67165;SHT31;54093;50.014;19.984;2022-08-07T23:55:23;14.28;76.28
